Time;durP1;ratioP1;P1;durP2;ratioP2;P2;SDS_P1;SDS_P2;PMS_P1;PMS_P2;Temp;Humidity;BMP_temperature;BMP_pressure;BME280_temperature;BME280_humidity;BME280_pressure;Samples;Min_cycle;Max_cycle;Signal;HPM_P1;HPM_P2
2022/06/09 01:30:36;;;;;;;1.27;1.17;;;;;;;;;;7423419;19;20196;-96
2022/06/09 01:33:08;;;;;;;2.50;1.30;;;;;;;;;;7428715;19;20149;-96
2022/06/09 01:35:47;;;;;;;2.00;1.10;;;;;;;;;;7424305;19;20156;-94
2022/06/09 01:38:13;;;;;;;1.17;1.07;;;;;;;;;;7428460;19;20154;-96
2022/06/09 01:40:39;;;;;;;1.60;1.00;;;;;;;;;;7425277;19;20188;-94
2022/06/09 01:43:06;;;;;;;1.83;1.23;;;;;;;;;;7423125;19;20152;-95
2022/06/09 01:45:32;;;;;;;1.47;1.23;;;;;;;;;;7423494;19;20152;-95
2022/06/09 01:48:07;;;;;;;1.97;1.20;;;;;;;;;;7425316;19;20173;-95
2022/06/09 01:50:39;;;;;;;1.30;1.20;;;;;;;;;;7420497;19;20148;-94
2022/06/09 01:53:14;;;;;;;1.97;1.17;;;;;;;;;;7420607;19;20160;-96
2022/06/09 01:55:47;;;;;;;1.20;1.10;;;;;;;;;;7419845;19;20168;-94
2022/06/09 01:58:15;;;;;;;2.10;1.20;;;;;;;;;;7417685;19;20156;-94
2022/06/09 02:00:42;;;;;;;1.33;1.10;;;;;;;;;;7417393;19;20149;-92
2022/06/09 02:03:13;;;;;;;1.37;1.20;;;;;;;;;;7413972;19;20145;-94
2022/06/09 02:05:41;;;;;;;2.23;1.00;;;;;;;;;;7410769;19;20191;-93
2022/06/09 02:08:08;;;;;;;1.10;1.00;;;;;;;;;;7414981;19;20148;-96
2022/06/09 02:10:36;;;;;;;1.33;1.23;;;;;;;;;;7403780;19;20182;-94
2022/06/09 02:13:04;;;;;;;2.40;1.47;;;;;;;;;;7414912;19;20152;-93
2022/06/09 02:15:34;;;;;;;4.23;1.40;;;;;;;;;;7409773;19;20704;-92
2022/06/09 02:18:04;;;;;;;3.10;1.00;;;;;;;;;;7416616;19;20153;-95
2022/06/09 02:20:30;;;;;;;2.80;1.20;;;;;;;;;;7409969;19;20159;-93
2022/06/09 02:22:59;;;;;;;2.57;1.10;;;;;;;;;;7412714;19;20200;-93
2022/06/09 02:25:25;;;;;;;1.03;1.00;;;;;;;;;;7412266;19;20205;-94
2022/06/09 02:27:51;;;;;;;2.43;1.10;;;;;;;;;;7410438;19;20168;-95
2022/06/09 02:30:17;;;;;;;2.57;1.00;;;;;;;;;;7405170;19;20149;-93
2022/06/09 02:32:43;;;;;;;0.87;0.83;;;;;;;;;;7412822;19;20160;-94
2022/06/09 02:35:09;;;;;;;1.20;1.10;;;;;;;;;;7401551;19;20215;-92
2022/06/09 02:37:35;;;;;;;1.90;1.03;;;;;;;;;;7400026;19;20153;-92
2022/06/09 02:40:01;;;;;;;1.27;1.10;;;;;;;;;;7401875;19;20165;-94
2022/06/09 02:42:27;;;;;;;0.80;0.80;;;;;;;;;;7400238;19;20145;-93
2022/06/09 02:44:53;;;;;;;1.50;1.00;;;;;;;;;;7400756;19;20670;-93
2022/06/09 02:47:20;;;;;;;1.93;1.20;;;;;;;;;;7400015;19;20152;-93
2022/06/09 02:49:46;;;;;;;1.00;0.90;;;;;;;;;;7393903;19;20160;-96
2022/06/09 02:52:12;;;;;;;1.40;0.90;;;;;;;;;;7395312;19;20753;-95
2022/06/09 02:54:38;;;;;;;1.43;0.90;;;;;;;;;;7402525;19;20212;-95
2022/06/09 02:57:04;;;;;;;1.10;1.00;;;;;;;;;;7401734;19;20148;-93
2022/06/09 02:59:30;;;;;;;1.73;1.00;;;;;;;;;;7404859;19;20165;-93
2022/06/09 03:01:56;;;;;;;1.37;0.90;;;;;;;;;;7412751;19;20185;-93
2022/06/09 03:04:22;;;;;;;2.07;1.00;;;;;;;;;;7418916;19;20156;-96
2022/06/09 03:06:48;;;;;;;1.60;0.90;;;;;;;;;;7419347;19;20147;-94
2022/06/09 03:09:14;;;;;;;1.10;0.90;;;;;;;;;;7422845;19;20156;-96
2022/06/09 03:11:40;;;;;;;0.77;0.77;;;;;;;;;;7418602;19;20176;-96
2022/06/09 03:14:07;;;;;;;2.23;0.80;;;;;;;;;;7421465;19;20372;-95
2022/06/09 03:16:33;;;;;;;2.13;0.90;;;;;;;;;;7417225;19;20195;-93
2022/06/09 03:18:59;;;;;;;2.70;0.80;;;;;;;;;;7396654;19;20576;-96
2022/06/09 03:21:25;;;;;;;1.00;0.77;;;;;;;;;;7395467;19;20155;-93
2022/06/09 03:23:51;;;;;;;1.27;0.90;;;;;;;;;;7393968;19;20555;-93
2022/06/09 03:26:17;;;;;;;1.77;0.87;;;;;;;;;;7392301;19;20197;-94
2022/06/09 03:28:43;;;;;;;4.00;1.30;;;;;;;;;;7402179;19;20164;-94
2022/06/09 03:31:09;;;;;;;0.70;0.70;;;;;;;;;;7391767;19;20180;-94
2022/06/09 03:33:35;;;;;;;1.30;1.00;;;;;;;;;;7396524;19;20180;-93
2022/06/09 03:36:02;;;;;;;1.10;0.90;;;;;;;;;;7399426;19;20182;-94
2022/06/09 03:38:28;;;;;;;1.60;0.90;;;;;;;;;;7398755;19;20172;-94
2022/06/09 03:40:54;;;;;;;1.07;0.90;;;;;;;;;;7402475;19;20149;-92
2022/06/09 03:43:20;;;;;;;1.07;0.83;;;;;;;;;;7407835;19;20157;-94
2022/06/09 03:45:46;;;;;;;2.00;1.10;;;;;;;;;;7412713;19;20153;-93
2022/06/09 03:48:12;;;;;;;1.10;0.80;;;;;;;;;;7420442;19;20182;-94
2022/06/09 03:50:38;;;;;;;2.30;0.90;;;;;;;;;;7420744;19;20129;-93
2022/06/09 03:53:04;;;;;;;2.50;0.90;;;;;;;;;;7419859;19;20168;-93
2022/06/09 03:55:31;;;;;;;1.17;1.00;;;;;;;;;;7417669;19;20182;-93
2022/06/09 03:57:57;;;;;;;1.33;1.20;;;;;;;;;;7420269;19;20145;-93
2022/06/09 04:00:24;;;;;;;3.60;1.00;;;;;;;;;;7415747;19;20177;-90
2022/06/09 04:02:50;;;;;;;2.83;1.00;;;;;;;;;;7411849;19;20144;-94
2022/06/09 04:05:16;;;;;;;1.40;1.00;;;;;;;;;;7413672;19;20157;-93
2022/06/09 04:07:43;;;;;;;2.40;0.97;;;;;;;;;;7415947;19;20139;-94
2022/06/09 04:10:14;;;;;;;2.13;0.77;;;;;;;;;;7420382;19;20169;-94
2022/06/09 04:12:40;;;;;;;1.87;1.00;;;;;;;;;;7414941;19;20182;-93
2022/06/09 04:15:06;;;;;;;0.90;0.70;;;;;;;;;;7416344;19;20220;-94
2022/06/09 04:17:32;;;;;;;1.93;0.90;;;;;;;;;;7410585;19;20160;-94
2022/06/09 04:19:58;;;;;;;1.57;0.97;;;;;;;;;;7407776;19;20156;-94
2022/06/09 04:22:24;;;;;;;1.90;0.80;;;;;;;;;;7414871;19;20176;-94
2022/06/09 04:24:50;;;;;;;1.33;0.80;;;;;;;;;;7411843;19;20168;-94
2022/06/09 04:27:16;;;;;;;1.43;1.00;;;;;;;;;;7403335;19;20148;-94
2022/06/09 04:29:42;;;;;;;1.33;1.00;;;;;;;;;;7412650;19;20175;-94
2022/06/09 04:32:08;;;;;;;0.80;0.77;;;;;;;;;;7410657;19;20147;-93
2022/06/09 04:34:34;;;;;;;0.73;0.70;;;;;;;;;;7410006;19;20149;-93
2022/06/09 04:37:00;;;;;;;1.77;0.87;;;;;;;;;;7406805;19;20167;-94
2022/06/09 04:39:26;;;;;;;2.10;0.90;;;;;;;;;;7410566;19;20145;-93
2022/06/09 04:41:52;;;;;;;1.47;1.10;;;;;;;;;;7404923;19;20160;-93
2022/06/09 04:44:18;;;;;;;1.70;0.87;;;;;;;;;;7403431;19;20168;-93
2022/06/09 04:46:44;;;;;;;1.43;0.90;;;;;;;;;;7409226;19;20167;-92
2022/06/09 04:49:10;;;;;;;1.63;0.83;;;;;;;;;;7415398;19;20169;-94
2022/06/09 04:51:36;;;;;;;1.23;0.90;;;;;;;;;;7408844;19;20161;-92
2022/06/09 04:54:05;;;;;;;3.60;1.00;;;;;;;;;;7409341;19;20179;-94
2022/06/09 04:56:31;;;;;;;2.07;0.90;;;;;;;;;;7403424;19;20168;-94
2022/06/09 04:58:57;;;;;;;3.03;1.20;;;;;;;;;;7409167;19;20159;-92
2022/06/09 05:01:29;;;;;;;1.30;0.90;;;;;;;;;;7419512;19;20140;-95
2022/06/09 05:03:56;;;;;;;2.40;1.00;;;;;;;;;;7419913;19;20152;-95
2022/06/09 05:06:22;;;;;;;1.67;1.03;;;;;;;;;;7417591;19;20176;-95
2022/06/09 05:08:49;;;;;;;1.90;1.20;;;;;;;;;;7420251;19;20145;-95
2022/06/09 05:11:15;;;;;;;1.60;1.00;;;;;;;;;;7414655;19;20432;-93
2022/06/09 05:13:41;;;;;;;1.67;1.00;;;;;;;;;;7404965;19;20163;-93
2022/06/09 05:16:08;;;;;;;1.00;0.90;;;;;;;;;;7399425;19;20172;-94
2022/06/09 05:18:34;;;;;;;2.50;1.00;;;;;;;;;;7402763;19;20159;-94
2022/06/09 05:21:00;;;;;;;2.67;1.30;;;;;;;;;;7402110;19;20156;-94
2022/06/09 05:23:27;;;;;;;2.70;1.10;;;;;;;;;;7402312;19;20220;-92
2022/06/09 05:25:54;;;;;;;2.10;1.00;;;;;;;;;;7406074;19;20194;-93
2022/06/09 05:28:21;;;;;;;2.97;1.17;;;;;;;;;;7404471;19;20157;-93
2022/06/09 05:30:47;;;;;;;1.30;1.03;;;;;;;;;;7403485;19;20152;-94
2022/06/09 05:33:13;;;;;;;2.00;1.17;;;;;;;;;;7406652;19;20164;-94
2022/06/09 05:35:42;;;;;;;2.07;1.30;;;;;;;;;;7395578;19;20165;-88
2022/06/09 05:46:23;;;;;;;2.97;1.10;;;;;;;;;;7406696;19;20174;-91
2022/06/09 05:48:49;;;;;;;1.07;0.93;;;;;;;;;;7408592;19;20156;-95
2022/06/09 05:51:16;;;;;;;1.73;1.20;;;;;;;;;;7416830;19;20437;-93
2022/06/09 05:53:42;;;;;;;1.87;1.00;;;;;;;;;;7418625;19;20152;-92
2022/06/09 05:56:08;;;;;;;2.33;1.10;;;;;;;;;;7387550;19;20172;-91
2022/06/09 05:58:38;;;;;;;2.57;1.50;;;;;;;;;;7411719;19;20175;-93
2022/06/09 06:01:07;;;;;;;1.13;0.90;;;;;;;;;;7409025;19;20156;-92
2022/06/09 06:03:34;;;;;;;1.00;0.90;;;;;;;;;;7387428;19;20272;-87
2022/06/09 06:08:44;;;;;;;3.93;1.10;;;;;;;;;;7399442;19;20162;-82
2022/06/09 06:11:11;;;;;;;1.30;1.00;;;;;;;;;;7395299;19;20137;-83
2022/06/09 06:13:37;;;;;;;2.00;0.90;;;;;;;;;;7392479;19;20152;-82
2022/06/09 06:16:03;;;;;;;3.63;1.27;;;;;;;;;;7392510;19;20179;-81
2022/06/09 06:18:30;;;;;;;1.20;1.10;;;;;;;;;;7393347;19;20147;-82
2022/06/09 06:20:56;;;;;;;2.00;1.10;;;;;;;;;;7392535;19;21094;-83
2022/06/09 06:23:23;;;;;;;1.07;0.93;;;;;;;;;;7392906;19;20176;-85
2022/06/09 06:25:49;;;;;;;3.27;1.20;;;;;;;;;;7393279;19;20176;-83
2022/06/09 06:28:15;;;;;;;1.93;0.90;;;;;;;;;;7393175;19;20136;-82
2022/06/09 06:30:41;;;;;;;4.00;1.20;;;;;;;;;;7394844;19;20133;-85
2022/06/09 06:33:07;;;;;;;4.95;1.60;;;;;;;;;;7392009;19;20543;-86
2022/06/09 06:35:33;;;;;;;1.63;1.20;;;;;;;;;;7391703;19;20544;-86
2022/06/09 06:38:00;;;;;;;1.00;0.90;;;;;;;;;;7391354;19;20237;-82
2022/06/09 06:40:26;;;;;;;2.08;1.20;;;;;;;;;;7396735;19;20157;-85
2022/06/09 06:42:52;;;;;;;2.20;1.08;;;;;;;;;;7392928;19;20141;-83
2022/06/09 06:45:19;;;;;;;3.58;1.10;;;;;;;;;;7394159;19;20514;-84
2022/06/09 06:47:45;;;;;;;3.25;0.90;;;;;;;;;;7392381;19;20537;-83
2022/06/09 06:50:12;;;;;;;1.83;1.20;;;;;;;;;;7394247;19;20677;-83
2022/06/09 06:52:38;;;;;;;3.53;1.20;;;;;;;;;;7393747;19;20152;-83
2022/06/09 06:55:05;;;;;;;3.45;1.30;;;;;;;;;;7393871;19;20201;-83
2022/06/09 06:57:33;;;;;;;2.55;1.17;;;;;;;;;;7388841;19;20160;-85
2022/06/09 07:00:00;;;;;;;3.47;1.40;;;;;;;;;;7392070;19;20156;-83
2022/06/09 07:02:26;;;;;;;2.80;1.30;;;;;;;;;;7386323;19;20141;-86
2022/06/09 07:04:52;;;;;;;2.38;1.48;;;;;;;;;;7393889;19;20157;-85
2022/06/09 07:07:18;;;;;;;2.55;1.27;;;;;;;;;;7387634;19;20501;-86
2022/06/09 07:09:44;;;;;;;1.80;1.40;;;;;;;;;;7389241;19;20187;-86
2022/06/09 07:12:10;;;;;;;2.50;1.30;;;;;;;;;;7393807;19;20140;-84
2022/06/09 07:14:36;;;;;;;3.03;1.55;;;;;;;;;;7392481;19;20124;-83
2022/06/09 07:17:03;;;;;;;2.58;1.40;;;;;;;;;;7387338;19;20627;-85
2022/06/09 07:19:29;;;;;;;3.40;1.30;;;;;;;;;;7389583;19;20243;-83
2022/06/09 07:21:55;;;;;;;1.45;1.23;;;;;;;;;;7389876;19;20171;-83
2022/06/09 07:24:21;;;;;;;1.83;1.10;;;;;;;;;;7391252;19;20136;-81
2022/06/09 07:26:47;;;;;;;3.28;1.10;;;;;;;;;;7387271;19;20183;-83
2022/06/09 07:29:13;;;;;;;1.70;1.00;;;;;;;;;;7391556;19;20141;-82
2022/06/09 07:31:39;;;;;;;2.45;1.10;;;;;;;;;;7390003;19;20149;-82
2022/06/09 07:34:05;;;;;;;2.65;1.00;;;;;;;;;;7388795;19;20133;-83
2022/06/09 07:36:32;;;;;;;4.95;1.35;;;;;;;;;;7388150;19;20530;-82
2022/06/09 07:38:58;;;;;;;1.02;0.85;;;;;;;;;;7393551;19;20133;-82
2022/06/09 07:41:24;;;;;;;2.70;1.00;;;;;;;;;;7393105;19;20208;-83
2022/06/09 07:43:52;;;;;;;2.75;1.65;;;;;;;;;;7386155;19;20165;-83
2022/06/09 07:46:18;;;;;;;3.65;1.23;;;;;;;;;;7389108;19;20163;-84
2022/06/09 07:48:47;;;;;;;5.63;1.40;;;;;;;;;;7387414;19;20149;-82
2022/06/09 07:51:13;;;;;;;3.35;1.10;;;;;;;;;;7391031;19;20145;-82
2022/06/09 07:53:39;;;;;;;2.58;1.17;;;;;;;;;;7390676;19;20148;-83
2022/06/09 07:56:06;;;;;;;2.13;0.95;;;;;;;;;;7390827;19;20175;-82
2022/06/09 07:58:32;;;;;;;3.28;1.15;;;;;;;;;;7392365;19;20739;-82
2022/06/09 08:00:58;;;;;;;4.03;1.38;;;;;;;;;;7393072;19;20133;-82
2022/06/09 08:03:25;;;;;;;1.77;1.10;;;;;;;;;;7389202;19;20148;-84
2022/06/09 08:05:51;;;;;;;1.83;1.08;;;;;;;;;;7386938;19;20170;-81
2022/06/09 08:08:19;;;;;;;1.10;0.93;;;;;;;;;;7386716;19;20634;-84
2022/06/09 08:10:45;;;;;;;3.45;1.10;;;;;;;;;;7386742;19;20163;-82
2022/06/09 08:13:12;;;;;;;3.90;1.30;;;;;;;;;;7390037;19;20192;-81
2022/06/09 08:15:38;;;;;;;3.15;1.02;;;;;;;;;;7384848;19;20190;-82
2022/06/09 08:18:04;;;;;;;5.68;1.25;;;;;;;;;;7389807;19;20141;-81
2022/06/09 08:20:32;;;;;;;5.38;1.40;;;;;;;;;;7382935;19;20153;-83
2022/06/09 08:23:09;;;;;;;2.05;1.10;;;;;;;;;;7386609;19;20144;-82
2022/06/09 08:25:35;;;;;;;2.00;1.10;;;;;;;;;;7389886;19;20148;-82
2022/06/09 08:28:03;;;;;;;3.55;1.50;;;;;;;;;;7386375;19;20133;-82
2022/06/09 08:30:30;;;;;;;3.70;1.20;;;;;;;;;;7388828;19;20146;-83
2022/06/09 08:32:57;;;;;;;4.35;1.20;;;;;;;;;;7387102;19;20156;-82
2022/06/09 08:35:23;;;;;;;2.55;1.10;;;;;;;;;;7385649;19;20173;-84
2022/06/09 08:37:51;;;;;;;2.35;1.33;;;;;;;;;;7395880;19;20145;-87
2022/06/09 08:40:19;;;;;;;1.60;0.88;;;;;;;;;;7406136;19;20141;-84
2022/06/09 08:42:53;;;;;;;1.58;1.10;;;;;;;;;;7388053;19;20153;-83
2022/06/09 08:45:25;;;;;;;1.80;1.02;;;;;;;;;;7392138;19;20284;-82
2022/06/09 08:47:54;;;;;;;5.07;1.40;;;;;;;;;;7392160;19;20121;-82
2022/06/09 08:50:22;;;;;;;1.75;1.10;;;;;;;;;;7386842;19;20152;-85
2022/06/09 08:53:08;;;;;;;1.98;1.20;;;;;;;;;;7388775;19;20133;-83
2022/06/09 08:55:37;;;;;;;2.92;1.30;;;;;;;;;;7388112;19;20152;-82
2022/06/09 08:58:12;;;;;;;2.97;1.20;;;;;;;;;;7388692;19;20152;-84
2022/06/09 09:00:43;;;;;;;2.92;1.25;;;;;;;;;;7388237;19;20144;-84
2022/06/09 09:03:16;;;;;;;2.55;1.30;;;;;;;;;;7388361;19;20551;-82
2022/06/09 09:05:46;;;;;;;4.15;1.63;;;;;;;;;;7385457;19;20548;-84
2022/06/09 09:08:13;;;;;;;3.90;1.40;;;;;;;;;;7382664;19;20153;-83
2022/06/09 09:10:42;;;;;;;3.05;1.48;;;;;;;;;;7386956;19;20159;-82
2022/06/09 09:13:14;;;;;;;4.78;1.88;;;;;;;;;;7386297;19;20164;-83
2022/06/09 09:15:45;;;;;;;2.53;1.30;;;;;;;;;;7389060;19;20176;-82
2022/06/09 09:18:28;;;;;;;2.70;1.23;;;;;;;;;;7392409;19;20342;-82
2022/06/09 09:20:54;;;;;;;4.55;1.35;;;;;;;;;;7399042;19;20164;-82
2022/06/09 09:23:25;;;;;;;4.22;1.70;;;;;;;;;;7397415;19;20230;-81
2022/06/09 09:25:54;;;;;;;2.90;1.50;;;;;;;;;;7395529;19;20145;-82
2022/06/09 09:28:23;;;;;;;3.22;1.33;;;;;;;;;;7393843;19;20135;-83
2022/06/09 09:30:52;;;;;;;4.00;1.52;;;;;;;;;;7390805;19;20595;-82
2022/06/09 09:33:19;;;;;;;2.97;1.55;;;;;;;;;;7393656;19;20762;-82
2022/06/09 09:35:48;;;;;;;2.38;1.58;;;;;;;;;;7392030;19;20205;-85
2022/06/09 09:38:16;;;;;;;4.60;1.20;;;;;;;;;;7396523;19;20496;-81
2022/06/09 09:40:44;;;;;;;4.63;1.50;;;;;;;;;;7392781;19;20200;-84
2022/06/09 09:43:13;;;;;;;4.55;1.70;;;;;;;;;;7396689;19;20623;-84
2022/06/09 09:45:50;;;;;;;4.30;1.17;;;;;;;;;;7385032;19;20172;-85
2022/06/09 09:48:19;;;;;;;4.75;1.63;;;;;;;;;;7393880;19;20662;-84
2022/06/09 09:51:03;;;;;;;3.88;1.23;;;;;;;;;;7394675;19;20160;-85
2022/06/09 09:53:28;;;;;;;3.97;1.23;;;;;;;;;;7394278;19;20196;-82
2022/06/09 09:55:57;;;;;;;4.00;1.98;;;;;;;;;;7391295;19;20161;-82
2022/06/09 09:58:29;;;;;;;3.70;1.27;;;;;;;;;;7393764;19;20481;-83
2022/06/09 10:00:57;;;;;;;7.10;1.67;;;;;;;;;;7393990;19;20152;-82
2022/06/09 10:09:19;;;;;;;4.75;1.52;;;;;;;;;;7397989;19;20150;-83
2022/06/09 10:11:53;;;;;;;5.78;1.73;;;;;;;;;;7393311;19;21006;-83
2022/06/09 10:14:32;;;;;;;4.75;1.52;;;;;;;;;;7394037;19;20147;-84
2022/06/09 10:16:58;;;;;;;4.88;1.52;;;;;;;;;;7394241;19;20160;-83
2022/06/09 10:19:26;;;;;;;2.40;1.40;;;;;;;;;;7395472;19;20141;-82
2022/06/09 10:21:53;;;;;;;6.57;3.50;;;;;;;;;;7391827;19;20753;-82
2022/06/09 10:24:21;;;;;;;3.15;1.40;;;;;;;;;;7394061;19;20541;-84
2022/06/09 10:26:51;;;;;;;2.95;1.30;;;;;;;;;;7391880;19;20157;-84
2022/06/09 10:29:20;;;;;;;4.45;1.58;;;;;;;;;;7394573;19;20137;-81
2022/06/09 10:32:03;;;;;;;5.00;1.23;;;;;;;;;;7389881;19;20216;-81
2022/06/09 10:34:35;;;;;;;5.30;1.40;;;;;;;;;;7394144;19;20145;-81
2022/06/09 10:37:07;;;;;;;4.97;1.75;;;;;;;;;;7392643;19;20180;-82
2022/06/09 10:39:40;;;;;;;2.67;1.48;;;;;;;;;;7392905;19;20145;-83
2022/06/09 10:42:16;;;;;;;2.97;1.42;;;;;;;;;;7393603;19;20690;-83
2022/06/09 10:44:46;;;;;;;4.47;1.30;;;;;;;;;;7398666;19;20169;-84
2022/06/09 10:55:59;;;;;;;3.75;1.40;;;;;;;;;;7388675;19;20155;-81
2022/06/09 10:58:31;;;;;;;7.18;1.90;;;;;;;;;;7391889;19;20496;-83
2022/06/09 11:00:58;;;;;;;5.70;1.65;;;;;;;;;;7394502;19;20186;-85
2022/06/09 11:03:26;;;;;;;6.10;1.80;;;;;;;;;;7409116;19;20162;-84
2022/06/09 11:05:55;;;;;;;6.10;1.80;;;;;;;;;;7409269;19;20145;-84
2022/06/09 11:08:24;;;;;;;5.90;1.98;;;;;;;;;;7406281;19;20145;-85
2022/06/09 11:10:50;;;;;;;2.75;1.33;;;;;;;;;;7418926;19;20148;-85
2022/06/09 11:13:25;;;;;;;3.15;1.30;;;;;;;;;;7420001;19;22227;-85
2022/06/09 11:15:57;;;;;;;2.65;1.17;;;;;;;;;;7423434;19;20168;-85
2022/06/09 11:18:23;;;;;;;4.53;1.17;;;;;;;;;;7424018;19;20117;-84
2022/06/09 11:21:04;;;;;;;3.00;1.20;;;;;;;;;;7423016;19;20158;-85
2022/06/09 11:23:37;;;;;;;3.03;1.38;;;;;;;;;;7405938;19;20141;-83
2022/06/09 11:26:11;;;;;;;3.10;1.40;;;;;;;;;;7393262;19;20176;-83
2022/06/09 11:28:56;;;;;;;2.67;1.10;;;;;;;;;;7388167;19;20157;-83
2022/06/09 11:31:41;;;;;;;3.40;1.20;;;;;;;;;;7385862;19;20569;-82
2022/06/09 11:34:25;;;;;;;5.05;1.63;;;;;;;;;;7375804;19;20161;-82
2022/06/09 11:37:01;;;;;;;3.25;1.30;;;;;;;;;;7389119;19;20204;-82
2022/06/09 11:39:33;;;;;;;4.18;1.48;;;;;;;;;;7390537;19;20208;-83
2022/06/09 11:42:23;;;;;;;2.67;1.23;;;;;;;;;;7392567;19;20160;-82
2022/06/09 11:44:51;;;;;;;6.35;1.92;;;;;;;;;;7393182;19;20153;-80
2022/06/09 11:47:18;;;;;;;7.93;2.50;;;;;;;;;;7387933;19;20184;-82
2022/06/09 11:49:46;;;;;;;6.85;1.63;;;;;;;;;;7388412;19;20160;-81
2022/06/09 11:52:16;;;;;;;5.03;1.58;;;;;;;;;;7388620;19;20538;-87
2022/06/09 11:54:48;;;;;;;3.10;1.30;;;;;;;;;;7390153;19;20141;-84
2022/06/09 11:57:18;;;;;;;3.67;1.75;;;;;;;;;;7386560;19;20292;-81
2022/06/09 11:59:58;;;;;;;3.60;1.60;;;;;;;;;;7393852;19;20157;-80
2022/06/09 12:02:43;;;;;;;2.13;1.40;;;;;;;;;;7390984;19;20145;-83
2022/06/09 12:05:22;;;;;;;3.53;1.40;;;;;;;;;;7391693;19;20495;-81
2022/06/09 12:08:07;;;;;;;1.95;1.30;;;;;;;;;;7390615;19;20132;-81
2022/06/09 12:10:51;;;;;;;5.32;1.23;;;;;;;;;;7386908;19;20136;-80
2022/06/09 12:13:28;;;;;;;2.78;1.20;;;;;;;;;;7389039;19;20157;-84
2022/06/09 12:15:59;;;;;;;5.00;1.33;;;;;;;;;;7388873;19;20168;-82
2022/06/09 12:18:46;;;;;;;2.35;1.40;;;;;;;;;;7388243;19;20149;-83
2022/06/09 12:21:14;;;;;;;1.77;1.17;;;;;;;;;;7391839;19;20594;-83
2022/06/09 12:24:03;;;;;;;1.98;1.10;;;;;;;;;;7389144;19;20137;-82
2022/06/09 12:26:44;;;;;;;3.13;1.00;;;;;;;;;;7388219;19;20157;-79
2022/06/09 12:29:35;;;;;;;2.35;1.35;;;;;;;;;;7386604;19;20156;-80
2022/06/09 12:32:08;;;;;;;2.67;1.20;;;;;;;;;;7387152;19;20205;-80
2022/06/09 12:34:37;;;;;;;2.55;1.50;;;;;;;;;;7390776;19;20561;-80
2022/06/09 12:37:03;;;;;;;4.20;1.38;;;;;;;;;;7387778;19;20563;-78
2022/06/09 12:39:36;;;;;;;4.78;1.30;;;;;;;;;;7383732;19;20619;-78
2022/06/09 12:42:06;;;;;;;3.63;1.50;;;;;;;;;;7388154;19;20144;-80
2022/06/09 12:44:43;;;;;;;3.08;1.55;;;;;;;;;;7396513;19;20133;-80
2022/06/09 12:47:18;;;;;;;2.70;1.58;;;;;;;;;;7388103;19;20292;-79
2022/06/09 12:49:46;;;;;;;4.47;1.67;;;;;;;;;;7399785;19;20180;-79
2022/06/09 12:52:32;;;;;;;2.22;1.10;;;;;;;;;;7401974;19;20145;-79
2022/06/09 12:54:59;;;;;;;3.08;1.17;;;;;;;;;;7390957;19;20159;-79
2022/06/09 12:57:33;;;;;;;2.53;1.10;;;;;;;;;;7387281;19;20149;-81
2022/06/09 13:00:15;;;;;;;2.70;1.35;;;;;;;;;;7386433;19;20511;-79
2022/06/09 13:02:42;;;;;;;3.75;1.48;;;;;;;;;;7391302;19;20137;-79
2022/06/09 13:05:16;;;;;;;5.45;1.52;;;;;;;;;;7384337;19;20696;-79
2022/06/09 13:07:57;;;;;;;5.18;1.52;;;;;;;;;;7383011;19;20147;-78
2022/06/09 13:10:27;;;;;;;2.63;1.33;;;;;;;;;;7382630;19;20204;-82
2022/06/09 13:12:55;;;;;;;6.75;1.35;;;;;;;;;;7387240;19;20145;-79
2022/06/09 13:15:26;;;;;;;3.22;1.20;;;;;;;;;;7387835;19;20125;-79
2022/06/09 13:17:53;;;;;;;1.98;1.30;;;;;;;;;;7385479;19;20495;-79
2022/06/09 13:20:21;;;;;;;3.70;1.40;;;;;;;;;;7387205;19;20157;-77
2022/06/09 13:22:48;;;;;;;1.73;1.10;;;;;;;;;;7379555;19;20137;-78
2022/06/09 13:25:16;;;;;;;4.57;1.70;;;;;;;;;;7386560;19;20125;-77
2022/06/09 13:27:45;;;;;;;2.72;1.30;;;;;;;;;;7382858;19;20540;-79
2022/06/09 13:30:29;;;;;;;3.50;0.98;;;;;;;;;;7386470;19;20717;-79
2022/06/09 13:32:55;;;;;;;2.17;0.90;;;;;;;;;;7385621;19;20129;-79
2022/06/09 13:35:38;;;;;;;4.38;1.10;;;;;;;;;;7386354;19;20153;-78
2022/06/09 13:38:23;;;;;;;1.77;1.20;;;;;;;;;;7386789;19;20200;-79
2022/06/09 13:40:52;;;;;;;3.83;1.35;;;;;;;;;;7384372;19;20156;-78
2022/06/09 13:43:29;;;;;;;3.25;1.40;;;;;;;;;;7386770;19;20133;-79
2022/06/09 13:46:05;;;;;;;2.03;1.13;;;;;;;;;;7384567;19;20144;-79
2022/06/09 13:48:41;;;;;;;3.28;1.45;;;;;;;;;;7386957;19;20124;-79
2022/06/09 13:51:09;;;;;;;4.97;2.10;;;;;;;;;;7383644;19;20159;-79
2022/06/09 13:53:41;;;;;;;3.78;1.05;;;;;;;;;;7385011;19;20250;-79
2022/06/09 13:56:10;;;;;;;2.92;1.38;;;;;;;;;;7385376;19;20614;-80
2022/06/09 13:58:36;;;;;;;2.45;1.33;;;;;;;;;;7386557;19;20136;-79
2022/06/09 14:01:03;;;;;;;2.60;1.23;;;;;;;;;;7385069;19;20171;-79
2022/06/09 14:03:32;;;;;;;1.88;1.20;;;;;;;;;;7386680;19;20546;-80
2022/06/09 14:06:03;;;;;;;3.72;1.60;;;;;;;;;;7388898;19;20152;-78
2022/06/09 14:08:30;;;;;;;4.32;1.63;;;;;;;;;;7394099;19;20128;-79
2022/06/09 14:10:56;;;;;;;3.55;1.25;;;;;;;;;;7392517;19;20157;-79
2022/06/09 14:13:22;;;;;;;2.95;1.30;;;;;;;;;;7393989;19;20160;-81
2022/06/09 14:15:49;;;;;;;3.08;1.23;;;;;;;;;;7393871;19;20189;-80
2022/06/09 14:18:20;;;;;;;2.42;1.08;;;;;;;;;;7395160;19;20121;-78
2022/06/09 14:20:46;;;;;;;3.70;1.02;;;;;;;;;;7394789;19;20144;-78
2022/06/09 14:23:23;;;;;;;4.10;1.08;;;;;;;;;;7395198;19;20630;-78
2022/06/09 14:25:56;;;;;;;6.25;1.50;;;;;;;;;;7392176;19;20152;-79
2022/06/09 14:28:23;;;;;;;3.08;1.17;;;;;;;;;;7389387;19;20152;-78
2022/06/09 14:30:48;;;;;;;3.13;1.23;;;;;;;;;;7390934;19;20512;-80
2022/06/09 14:33:15;;;;;;;4.20;1.75;;;;;;;;;;7390875;19;20140;-80
2022/06/09 14:35:41;;;;;;;2.38;1.33;;;;;;;;;;7387039;19;20232;-78
2022/06/09 14:38:07;;;;;;;2.63;1.15;;;;;;;;;;7389602;19;20153;-79
2022/06/09 14:40:35;;;;;;;3.63;1.23;;;;;;;;;;7391277;19;20583;-80
2022/06/09 14:43:01;;;;;;;4.28;1.42;;;;;;;;;;7388303;19;20155;-78
2022/06/09 14:45:27;;;;;;;2.78;1.13;;;;;;;;;;7387920;19;20148;-78
2022/06/09 14:47:53;;;;;;;2.22;1.25;;;;;;;;;;7390493;19;20646;-78
2022/06/09 14:50:22;;;;;;;2.72;1.15;;;;;;;;;;7389502;19;20197;-78
2022/06/09 14:52:48;;;;;;;2.05;1.05;;;;;;;;;;7385135;19;20151;-78
2022/06/09 14:55:16;;;;;;;2.88;1.40;;;;;;;;;;7383298;19;20153;-78
2022/06/09 14:57:42;;;;;;;5.97;1.83;;;;;;;;;;7385401;19;20189;-78
2022/06/09 15:00:14;;;;;;;1.77;1.25;;;;;;;;;;7384708;19;20152;-78
2022/06/09 15:02:40;;;;;;;3.42;1.25;;;;;;;;;;7388695;19;20150;-78
2022/06/09 15:05:06;;;;;;;2.45;1.63;;;;;;;;;;7390012;19;20491;-78
2022/06/09 15:07:32;;;;;;;2.10;1.25;;;;;;;;;;7388741;19;20137;-78
2022/06/09 15:09:58;;;;;;;3.03;1.25;;;;;;;;;;7384595;19;20152;-78
2022/06/09 15:12:24;;;;;;;4.78;1.27;;;;;;;;;;7387970;19;20164;-79
2022/06/09 15:14:50;;;;;;;2.25;1.17;;;;;;;;;;7378450;19;20157;-78
2022/06/09 15:17:17;;;;;;;2.22;1.48;;;;;;;;;;7387176;19;20153;-79
2022/06/09 15:19:43;;;;;;;5.65;1.75;;;;;;;;;;7385777;19;20132;-79
2022/06/09 15:22:09;;;;;;;2.03;1.38;;;;;;;;;;7388483;19;20124;-78
2022/06/09 15:24:35;;;;;;;3.17;1.38;;;;;;;;;;7388531;19;20374;-79
2022/06/09 15:27:01;;;;;;;4.32;1.33;;;;;;;;;;7386443;19;20164;-78
2022/06/09 15:29:27;;;;;;;1.73;1.42;;;;;;;;;;7388804;19;20125;-79
2022/06/09 15:31:53;;;;;;;1.65;1.30;;;;;;;;;;7379412;19;20159;-78
2022/06/09 15:34:22;;;;;;;3.38;1.25;;;;;;;;;;7388812;19;20478;-79
2022/06/09 15:36:50;;;;;;;3.72;1.15;;;;;;;;;;7387103;19;20152;-78
2022/06/09 15:39:16;;;;;;;4.43;1.65;;;;;;;;;;7383509;19;20164;-80
2022/06/09 15:41:42;;;;;;;2.72;1.23;;;;;;;;;;7388578;19;20469;-79
2022/06/09 15:44:08;;;;;;;3.65;1.30;;;;;;;;;;7386251;19;20149;-79
2022/06/09 15:46:34;;;;;;;4.10;1.45;;;;;;;;;;7380201;19;20246;-79
2022/06/09 15:49:00;;;;;;;4.68;1.38;;;;;;;;;;7388807;19;20125;-79
2022/06/09 15:51:27;;;;;;;1.95;1.25;;;;;;;;;;7388995;19;20128;-80
2022/06/09 15:53:52;;;;;;;5.90;1.77;;;;;;;;;;7390667;19;20217;-80
2022/06/09 15:56:19;;;;;;;2.22;1.10;;;;;;;;;;7385906;19;20180;-79
2022/06/09 15:58:45;;;;;;;2.45;1.58;;;;;;;;;;7384138;19;20502;-79
2022/06/09 16:01:13;;;;;;;2.90;1.20;;;;;;;;;;7385525;19;20599;-78
2022/06/09 16:03:40;;;;;;;3.50;1.15;;;;;;;;;;7381345;19;20205;-78
2022/06/09 16:06:06;;;;;;;2.00;1.15;;;;;;;;;;7380144;19;20562;-78
2022/06/09 16:08:32;;;;;;;1.95;1.23;;;;;;;;;;7388273;19;20121;-79
2022/06/09 16:10:58;;;;;;;2.40;1.30;;;;;;;;;;7387424;19;20167;-79
2022/06/09 16:13:24;;;;;;;2.58;1.23;;;;;;;;;;7381075;19;20129;-79
2022/06/09 16:15:51;;;;;;;2.15;1.20;;;;;;;;;;7382200;19;20519;-78
2022/06/09 16:18:18;;;;;;;3.85;1.48;;;;;;;;;;7389079;19;20144;-79
2022/06/09 16:20:45;;;;;;;4.70;1.67;;;;;;;;;;7387222;19;20127;-79
2022/06/09 16:23:11;;;;;;;3.85;1.20;;;;;;;;;;7378965;19;20149;-78
2022/06/09 16:25:38;;;;;;;2.88;1.42;;;;;;;;;;7377386;19;20737;-78
2022/06/09 16:28:04;;;;;;;3.50;1.55;;;;;;;;;;7384798;19;20164;-78
2022/06/09 16:30:31;;;;;;;3.55;1.50;;;;;;;;;;7369129;19;20164;-79
2022/06/09 16:32:57;;;;;;;3.28;1.00;;;;;;;;;;7384299;19;20148;-78
2022/06/09 16:35:24;;;;;;;2.45;1.30;;;;;;;;;;7385880;19;20140;-78
2022/06/09 16:37:51;;;;;;;2.72;1.15;;;;;;;;;;7386435;19;20132;-78
2022/06/09 16:40:23;;;;;;;2.00;1.33;;;;;;;;;;7388117;19;20143;-78
2022/06/09 16:42:49;;;;;;;2.10;1.20;;;;;;;;;;7386240;19;20215;-79
2022/06/09 16:45:15;;;;;;;2.35;1.02;;;;;;;;;;7383338;19;20240;-80
2022/06/09 16:47:41;;;;;;;2.75;1.42;;;;;;;;;;7388747;19;20145;-78